Time;durP1;ratioP1;P1;durP2;ratioP2;P2;SDS_P1;SDS_P2;PMS_P1;PMS_P2;Temp;Humidity;BMP_temperature;BMP_pressure;BME280_temperature;BME280_humidity;BME280_pressure;Samples;Min_cycle;Max_cycle;Signal;HPM_P1;HPM_P2
2022/01/30 00:02:18;;;;;;;15.57;2.22;;;;;;;5.03;78.83;101730.50;15282567;19;20074;-66
2022/01/30 00:07:21;;;;;;;14.10;2.28;;;;;;;5.03;79.07;101743.47;15273951;19;20023;-67
2022/01/30 00:12:32;;;;;;;20.95;2.85;;;;;;;5.02;79.06;101726.09;15275784;19;20771;-68
2022/01/30 00:17:41;;;;;;;26.08;3.60;;;;;;;4.93;80.25;101725.59;15274290;19;20348;-67
2022/01/30 00:23:10;;;;;;;15.15;3.00;;;;;;;4.94;80.91;101738.66;15273540;19;20014;-68
2022/01/30 00:28:07;;;;;;;13.32;2.20;;;;;;;4.78;81.65;101725.66;15273318;19;20090;-68
2022/01/30 00:33:09;;;;;;;17.38;3.03;;;;;;;4.78;81.65;101725.66;15274083;19;20007;-67
2022/01/30 00:38:15;;;;;;;20.77;4.13;;;;;;;4.81;82.38;101740.50;15273694;19;20552;-68
2022/01/30 00:43:18;;;;;;;16.60;3.00;;;;;;;4.78;82.90;101734.31;15272028;19;20017;-68
2022/01/30 00:48:21;;;;;;;24.70;3.58;;;;;;;4.84;83.05;101730.28;15271817;19;20014;-67
2022/01/30 00:53:23;;;;;;;23.42;3.08;;;;;;;4.85;83.03;101739.84;15268534;19;20275;-67
2022/01/30 00:58:25;;;;;;;18.65;2.58;;;;;;;-147.53;100.00;57128.34;15297988;19;20070;-66
2022/01/30 01:03:27;;;;;;;12.27;1.65;;;;;;;-147.53;100.00;57128.34;15304481;19;20018;-68
2022/01/30 01:08:48;;;;;;;17.10;2.85;;;;;;;-147.53;100.00;57128.34;15301557;19;20011;-68
2022/01/30 01:24:31;;;;;;;26.50;2.95;;;;;;;-147.53;100.00;57128.34;15297213;19;20033;-68
2022/01/30 01:29:32;;;;;;;17.77;3.25;;;;;;;-147.53;100.00;57128.34;15299175;19;20058;-67
2022/01/30 01:34:37;;;;;;;27.13;3.72;;;;;;;-147.53;100.00;57128.34;15298830;19;20114;-67
2022/01/30 01:39:39;;;;;;;27.95;3.72;;;;;;;-147.53;100.00;57128.34;15301630;19;20421;-66
2022/01/30 01:44:46;;;;;;;21.10;3.35;;;;;;;-147.53;100.00;57128.34;15297896;19;20481;-69
2022/01/30 01:49:50;;;;;;;15.55;3.30;;;;;;;-147.53;100.00;57128.34;15298045;19;20020;-67
2022/01/30 01:54:57;;;;;;;23.52;2.85;;;;;;;-147.53;100.00;57128.34;15294256;19;20015;-68
2022/01/30 02:00:00;;;;;;;31.88;4.70;;;;;;;-147.53;100.00;57128.34;15296510;19;20445;-69
2022/01/30 02:05:15;;;;;;;20.77;2.92;;;;;;;-147.53;100.00;57128.34;15197226;19;2004309;-68
2022/01/30 02:10:37;;;;;;;25.48;4.03;;;;;;;-147.53;100.00;57128.34;15280092;19;20496;-68
2022/01/30 02:26:35;;;;;;;15.32;2.60;;;;;;;-147.53;100.00;57128.34;15277176;19;20394;-68
2022/01/30 02:31:39;;;;;;;19.27;2.58;;;;;;;-147.53;100.00;57128.34;15277125;19;20344;-68
2022/01/30 02:36:45;;;;;;;22.88;3.35;;;;;;;-147.53;100.00;57128.34;15279030;19;20010;-68
2022/01/30 02:41:48;;;;;;;20.80;3.58;;;;;;;-147.53;100.00;57128.34;15279601;19;20035;-68
2022/01/30 02:46:53;;;;;;;21.40;2.72;;;;;;;-147.53;100.00;57128.34;15275403;19;20379;-68
2022/01/30 02:56:58;;;;;;;20.65;3.05;;;;;;;-147.53;100.00;57128.34;15277127;19;20506;-68
2022/01/30 03:02:01;;;;;;;29.25;3.58;;;;;;;-147.53;100.00;57128.34;15286185;19;20037;-67
2022/01/30 03:07:05;;;;;;;17.90;3.17;;;;;;;-147.53;100.00;57128.34;15280970;19;20015;-68
2022/01/30 03:12:13;;;;;;;30.98;3.67;;;;;;;-147.53;100.00;57128.34;15274783;19;20014;-68
2022/01/30 03:17:15;;;;;;;27.42;2.95;;;;;;;-147.53;100.00;57128.34;15275458;19;20014;-68
2022/01/30 03:22:17;;;;;;;19.25;3.78;;;;;;;-147.53;100.00;57128.34;15277022;19;20074;-68
2022/01/30 03:27:19;;;;;;;20.90;4.18;;;;;;;-147.53;100.00;57128.34;15275116;19;20019;-68
2022/01/30 03:32:25;;;;;;;26.15;3.38;;;;;;;-147.53;100.00;57128.34;15273462;19;20028;-68
2022/01/30 03:37:27;;;;;;;29.10;4.88;;;;;;;-147.53;100.00;57128.34;15273264;19;20007;-69
2022/01/30 03:42:29;;;;;;;23.75;3.30;;;;;;;-147.53;100.00;57128.34;15273827;19;20035;-68
2022/01/30 03:47:31;;;;;;;30.02;4.95;;;;;;;-147.53;100.00;57128.34;15272819;19;20412;-67
2022/01/30 03:52:33;;;;;;;30.60;4.15;;;;;;;-147.53;100.00;57128.34;15272848;19;20395;-67
2022/01/30 03:57:35;;;;;;;23.80;4.35;;;;;;;-147.53;100.00;57128.34;15272731;19;20011;-67
2022/01/30 04:02:37;;;;;;;22.25;3.42;;;;;;;-147.53;100.00;57128.34;15273606;19;20010;-67
2022/01/30 04:07:39;;;;;;;22.67;3.35;;;;;;;-147.53;100.00;57128.34;15276267;19;20011;-67
2022/01/30 04:13:00;;;;;;;27.23;4.15;;;;;;;-147.53;100.00;57128.34;15278892;19;20019;-68
2022/01/30 04:18:25;;;;;;;23.50;3.70;;;;;;;-147.53;100.00;57128.34;15274888;19;20022;-68
2022/01/30 04:23:46;;;;;;;19.33;3.03;;;;;;;-147.53;100.00;57128.34;15276953;19;20019;-69
2022/01/30 04:29:06;;;;;;;31.88;4.65;;;;;;;-147.53;100.00;57128.34;15273788;19;20011;-68
2022/01/30 04:34:28;;;;;;;24.05;3.22;;;;;;;-147.53;100.00;57128.34;15271064;19;20351;-67
2022/01/30 05:12:34;;;;;;;22.88;3.95;;;;;;;-147.53;100.00;57128.34;15269775;19;20014;-68
2022/01/30 05:17:54;;;;;;;29.42;3.70;;;;;;;-147.53;100.00;57128.34;15270734;19;20325;-68
2022/01/30 05:23:19;;;;;;;25.73;3.88;;;;;;;-147.53;100.00;57128.34;15268600;19;20020;-67
2022/01/30 05:28:39;;;;;;;22.48;3.55;;;;;;;-147.53;100.00;57128.34;15267941;19;20592;-67
2022/01/30 05:34:13;;;;;;;33.60;3.60;;;;;;;-147.53;100.00;57128.34;15265238;19;20905;-67
2022/01/30 05:39:32;;;;;;;18.35;3.28;;;;;;;-147.53;100.00;57128.34;15268181;19;20018;-67
2022/01/30 05:45:10;;;;;;;29.88;3.67;;;;;;;-147.53;100.00;57128.34;15277337;19;20359;-67
2022/01/30 05:50:42;;;;;;;23.85;3.47;;;;;;;-147.53;100.00;57128.34;15174197;19;2004470;-67
2022/01/30 05:55:55;;;;;;;20.88;3.70;;;;;;;-147.53;100.00;57128.34;15280835;19;20041;-67
2022/01/30 06:00:59;;;;;;;36.17;5.30;;;;;;;-147.53;100.00;57128.34;15282887;19;20411;-67
2022/01/30 06:06:00;;;;;;;23.50;3.67;;;;;;;-147.53;100.00;57128.34;15283768;19;20025;-67
2022/01/30 06:11:02;;;;;;;27.92;4.78;;;;;;;-147.53;100.00;57128.34;15282385;19;20390;-68
2022/01/30 06:16:05;;;;;;;35.47;3.63;;;;;;;-147.53;100.00;57128.34;15278554;19;20351;-67
2022/01/30 06:21:07;;;;;;;20.95;4.13;;;;;;;-147.53;100.00;57128.34;15283298;19;20014;-67
2022/01/30 06:26:27;;;;;;;27.30;3.57;;;;;;;-147.53;100.00;57128.34;15281978;19;20015;-67
2022/01/30 06:31:48;;;;;;;16.77;3.47;;;;;;;-147.53;100.00;57128.34;15282404;19;20014;-67
2022/01/30 06:37:08;;;;;;;25.50;3.72;;;;;;;-147.53;100.00;57128.34;15281132;19;20015;-67
2022/01/30 06:42:30;;;;;;;17.17;2.55;;;;;;;-147.53;100.00;57128.34;15277936;19;20025;-67
2022/01/30 06:47:51;;;;;;;11.88;2.58;;;;;;;-147.53;100.00;57128.34;15283052;19;20086;-67
2022/01/30 06:53:12;;;;;;;18.30;3.20;;;;;;;-147.53;100.00;57128.34;15280408;19;20070;-67
2022/01/30 06:58:32;;;;;;;23.42;3.28;;;;;;;-147.53;100.00;57128.34;15282978;19;20022;-68
2022/01/30 07:03:53;;;;;;;18.80;3.37;;;;;;;-147.53;100.00;57128.34;15288747;19;20026;-68
2022/01/30 07:09:04;;;;;;;11.98;2.60;;;;;;;-147.53;100.00;57128.34;15278834;19;20018;-67
2022/01/30 07:14:05;;;;;;;21.50;2.65;;;;;;;-147.53;100.00;57128.34;15280154;19;21037;-66
2022/01/30 07:19:07;;;;;;;19.55;3.25;;;;;;;-147.53;100.00;57128.34;15283257;19;20022;-68
2022/01/30 07:24:09;;;;;;;8.02;1.95;;;;;;;-147.53;100.00;57128.34;15276756;19;20081;-67
2022/01/30 07:29:11;;;;;;;21.27;2.08;;;;;;;-147.53;100.00;57128.34;15276919;19;20047;-67
2022/01/30 07:34:12;;;;;;;20.55;2.28;;;;;;;-147.53;100.00;57128.34;15276559;19;20010;-67
2022/01/30 07:39:15;;;;;;;18.55;2.55;;;;;;;-147.53;100.00;57128.34;15275834;19;20010;-68
2022/01/30 07:44:17;;;;;;;10.85;1.77;;;;;;;-147.53;100.00;57128.34;15278619;19;20015;-68
2022/01/30 07:49:19;;;;;;;20.58;3.00;;;;;;;-147.53;100.00;57128.34;15280440;19;20019;-68
2022/01/30 07:54:21;;;;;;;20.55;2.97;;;;;;;-147.53;100.00;57128.34;15276678;19;20022;-67
2022/01/30 07:59:23;;;;;;;25.42;3.10;;;;;;;-147.53;100.00;57128.34;15276149;19;20510;-68
2022/01/30 08:04:28;;;;;;;15.18;2.42;;;;;;;-147.53;100.00;57128.34;15273824;19;20022;-68
2022/01/30 08:09:30;;;;;;;21.02;3.20;;;;;;;-147.53;100.00;57128.34;15272680;19;20135;-67
2022/01/30 08:14:31;;;;;;;23.55;3.58;;;;;;;-147.53;100.00;57128.34;15272035;19;20656;-67
2022/01/30 08:19:34;;;;;;;18.23;2.47;;;;;;;-147.53;100.00;57128.34;15274605;19;20015;-67
2022/01/30 08:24:41;;;;;;;25.08;3.25;;;;;;;-147.53;100.00;57128.34;15268128;19;20474;-68
2022/01/30 08:29:42;;;;;;;22.40;4.03;;;;;;;-147.53;100.00;57128.34;15271877;19;20011;-68
2022/01/30 08:34:44;;;;;;;24.42;3.47;;;;;;;-147.53;100.00;57128.34;15270473;19;20023;-68
2022/01/30 08:39:46;;;;;;;25.15;3.10;;;;;;;-147.53;100.00;57128.34;15272768;19;20855;-67
2022/01/30 08:44:47;;;;;;;16.67;3.05;;;;;;;-147.53;100.00;57128.34;15270499;19;20086;-67
2022/01/30 08:49:49;;;;;;;24.67;3.42;;;;;;;-147.53;100.00;57128.34;15268630;19;20541;-68
2022/01/30 08:54:52;;;;;;;21.65;4.40;;;;;;;-147.53;100.00;57128.34;15269525;19;20315;-68
2022/01/30 08:59:54;;;;;;;26.27;3.47;;;;;;;-147.53;100.00;57128.34;15273102;19;20131;-67
2022/01/30 09:04:55;;;;;;;20.23;3.72;;;;;;;-147.53;100.00;57128.34;15272878;19;20014;-68
2022/01/30 09:09:57;;;;;;;18.55;3.45;;;;;;;-147.53;100.00;57128.34;15270589;19;20018;-67
2022/01/30 09:14:59;;;;;;;20.20;3.85;;;;;;;-147.53;100.00;57128.34;15266804;19;20031;-67
2022/01/30 09:20:04;;;;;;;32.95;4.10;;;;;;;-147.53;100.00;57128.34;15285587;19;20095;-68
2022/01/30 09:25:07;;;;;;;31.10;4.13;;;;;;;-147.53;100.00;57128.34;15285315;19;20120;-67
2022/01/30 09:30:09;;;;;;;26.20;4.03;;;;;;;-147.53;100.00;57128.34;15284346;19;20500;-69
2022/01/30 09:35:13;;;;;;;24.48;4.15;;;;;;;-147.53;100.00;57128.34;15177116;19;2004148;-67
2022/01/30 09:40:17;;;;;;;25.60;4.50;;;;;;;-147.53;100.00;57128.34;15284239;19;20030;-67
2022/01/30 09:45:22;;;;;;;29.50;4.03;;;;;;;-147.53;100.00;57128.34;15284293;19;20024;-68
2022/01/30 09:50:24;;;;;;;32.85;4.45;;;;;;;-147.53;100.00;57128.34;15281274;19;20084;-68
2022/01/30 09:55:26;;;;;;;25.42;4.93;;;;;;;-147.53;100.00;57128.34;15281440;19;20021;-67
2022/01/30 10:00:27;;;;;;;26.10;4.55;;;;;;;-147.53;100.00;57128.34;15283671;19;20027;-65
2022/01/30 10:05:33;;;;;;;36.22;4.35;;;;;;;-147.53;100.00;57128.34;15287252;19;20031;-68
2022/01/30 10:10:37;;;;;;;37.72;3.90;;;;;;;-147.53;100.00;57128.34;15283103;19;20014;-68
2022/01/30 10:15:53;;;;;;;25.92;3.75;;;;;;;-147.53;100.00;57128.34;15278039;19;21055;-67
2022/01/30 10:20:55;;;;;;;27.02;4.38;;;;;;;-147.53;100.00;57128.34;15283144;19;20426;-67
2022/01/30 10:25:57;;;;;;;19.85;3.90;;;;;;;-147.53;100.00;57128.34;15279391;19;20474;-67
2022/01/30 10:31:04;;;;;;;24.35;4.38;;;;;;;-147.53;100.00;57128.34;15278241;19;20074;-68
2022/01/30 10:36:08;;;;;;;24.55;3.13;;;;;;;-147.53;100.00;57128.34;15278409;19;20010;-68
2022/01/30 10:41:15;;;;;;;23.70;4.13;;;;;;;-147.53;100.00;57128.34;15282657;19;20758;-68
2022/01/30 10:46:22;;;;;;;19.38;3.72;;;;;;;-147.53;100.00;57128.34;15277339;19;20621;-68
2022/01/30 10:51:26;;;;;;;23.05;3.90;;;;;;;-147.53;100.00;57128.34;15279108;19;20034;-68
2022/01/30 10:56:29;;;;;;;27.48;4.55;;;;;;;-147.53;100.00;57128.34;15279627;19;20130;-67
2022/01/30 11:01:35;;;;;;;27.70;4.22;;;;;;;-147.53;100.00;57128.34;15282488;19;20018;-65
2022/01/30 11:06:39;;;;;;;25.38;5.30;;;;;;;-147.53;100.00;57128.34;15280912;19;20373;-68
2022/01/30 11:11:50;;;;;;;28.60;4.93;;;;;;;-147.53;100.00;57128.34;15277841;19;20812;-68
2022/01/30 11:17:25;;;;;;;26.30;3.90;;;;;;;-147.53;100.00;57128.34;15276337;19;20014;-68
2022/01/30 11:22:21;;;;;;;22.00;3.17;;;;;;;-147.53;100.00;57128.34;15277078;19;20041;-67
2022/01/30 11:27:23;;;;;;;29.08;4.93;;;;;;;-147.53;100.00;57128.34;15275803;19;20385;-69
2022/01/30 11:32:27;;;;;;;34.30;4.53;;;;;;;-147.53;100.00;57128.34;15273017;19;20462;-67
2022/01/30 11:37:33;;;;;;;26.38;4.85;;;;;;;-147.53;100.00;57128.34;15275167;19;20069;-68
2022/01/30 11:42:45;;;;;;;31.98;3.88;;;;;;;-147.53;100.00;57128.34;15273912;19;20018;-68
2022/01/30 11:47:48;;;;;;;28.63;5.05;;;;;;;-147.53;100.00;57128.34;15276040;19;20057;-69
2022/01/30 11:53:15;;;;;;;16.25;2.72;;;;;;;-147.53;100.00;57128.34;15274288;19;20058;-67
2022/01/30 11:58:37;;;;;;;20.65;3.08;;;;;;;-147.53;100.00;57128.34;15273638;19;20021;-68
2022/01/30 12:03:56;;;;;;;26.60;3.33;;;;;;;-147.53;100.00;57128.34;15280595;19;20025;-68
2022/01/30 12:09:03;;;;;;;24.80;4.05;;;;;;;-147.53;100.00;57128.34;15273967;19;20018;-69
2022/01/30 12:14:42;;;;;;;22.35;3.92;;;;;;;-147.53;100.00;57128.34;15272103;19;20501;-68
2022/01/30 12:19:47;;;;;;;25.35;3.40;;;;;;;-147.53;100.00;57128.34;15275538;19;20014;-69
2022/01/30 12:24:54;;;;;;;31.33;3.88;;;;;;;-147.53;100.00;57128.34;15272602;19;20495;-68
2022/01/30 12:29:56;;;;;;;31.40;4.60;;;;;;;-147.53;100.00;57128.34;15277094;19;20513;-69
2022/01/30 12:35:01;;;;;;;20.80;3.88;;;;;;;-147.53;100.00;57128.34;15274966;19;20081;-69
2022/01/30 12:40:09;;;;;;;28.58;4.00;;;;;;;-147.53;100.00;57128.34;15274846;19;20442;-68
2022/01/30 12:45:13;;;;;;;28.92;3.40;;;;;;;-147.53;100.00;57128.34;15270522;19;20560;-69
2022/01/30 12:50:16;;;;;;;24.73;3.33;;;;;;;-147.53;100.00;57128.34;15270704;19;20014;-68
2022/01/30 12:55:20;;;;;;;24.23;3.67;;;;;;;-147.53;100.00;57128.34;15270189;19;20029;-68
2022/01/30 13:00:22;;;;;;;17.60;3.28;;;;;;;-147.53;100.00;57128.34;15269995;19;20558;-66
2022/01/30 13:05:26;;;;;;;24.63;4.35;;;;;;;-147.53;100.00;57128.34;15280427;19;20018;-68
2022/01/30 13:10:28;;;;;;;26.80;5.00;;;;;;;-147.53;100.00;57128.34;15271017;19;20017;-68
2022/01/30 13:15:38;;;;;;;23.40;4.30;;;;;;;-147.53;100.00;57128.34;15269724;19;20014;-68
2022/01/30 13:20:39;;;;;;;26.63;4.20;;;;;;;-147.53;100.00;57128.34;15271573;19;20035;-68
2022/01/30 13:25:47;;;;;;;27.65;3.45;;;;;;;-147.53;100.00;57128.34;15268965;19;20023;-69
2022/01/30 13:30:49;;;;;;;35.85;3.83;;;;;;;-147.53;100.00;57128.34;15270551;19;20014;-69
2022/01/30 13:35:51;;;;;;;27.20;4.47;;;;;;;-147.53;100.00;57128.34;15268256;19;20015;-68
2022/01/30 13:40:58;;;;;;;25.27;3.92;;;;;;;-147.53;100.00;57128.34;15273237;19;20102;-68
2022/01/30 13:51:21;;;;;;;18.73;3.50;;;;;;;-147.53;100.00;57128.34;15265371;19;20013;-69
2022/01/30 13:56:23;;;;;;;20.33;3.83;;;;;;;-147.53;100.00;57128.34;15267550;19;20019;-68
2022/01/30 14:01:26;;;;;;;22.20;3.53;;;;;;;-147.53;100.00;57128.34;15271218;19;20018;-66
2022/01/30 14:06:33;;;;;;;27.30;3.85;;;;;;;-147.53;100.00;57128.34;15283775;19;20015;-68
2022/01/30 14:11:37;;;;;;;19.23;3.20;;;;;;;-147.53;100.00;57128.34;15281721;19;20017;-69
2022/01/30 14:16:49;;;;;;;22.08;3.10;;;;;;;-147.53;100.00;57128.34;15278767;19;20102;-68
2022/01/30 14:22:19;;;;;;;21.60;3.58;;;;;;;-147.53;100.00;57128.34;15284060;19;20010;-68
2022/01/30 14:27:22;;;;;;;17.85;2.28;;;;;;;-147.53;100.00;57128.34;15280113;19;20029;-67
2022/01/30 14:32:30;;;;;;;19.02;2.92;;;;;;;-147.53;100.00;57128.34;15279259;19;20007;-69
2022/01/30 14:37:32;;;;;;;28.00;3.35;;;;;;;-147.53;100.00;57128.34;15280036;19;20021;-68
2022/01/30 14:42:34;;;;;;;21.30;2.70;;;;;;;-147.53;100.00;57128.34;15281103;19;20018;-69
2022/01/30 14:47:36;;;;;;;27.70;3.38;;;;;;;-147.53;100.00;57128.34;15278143;19;20800;-69
2022/01/30 14:52:37;;;;;;;19.90;3.13;;;;;;;-147.53;100.00;57128.34;15278596;19;20015;-69
2022/01/30 14:57:40;;;;;;;20.55;3.60;;;;;;;-147.53;100.00;57128.34;15278843;19;20082;-68
2022/01/30 15:02:42;;;;;;;18.60;3.45;;;;;;;-147.53;100.00;57128.34;15292655;19;20019;-66
2022/01/30 15:07:44;;;;;;;20.65;3.25;;;;;;;-147.53;100.00;57128.34;15277511;19;20018;-69
2022/01/30 15:12:46;;;;;;;30.67;4.03;;;;;;;-147.53;100.00;57128.34;15276170;19;20890;-68
2022/01/30 15:17:51;;;;;;;26.85;3.22;;;;;;;-147.53;100.00;57128.34;15276864;19;20014;-68
2022/01/30 15:22:53;;;;;;;20.60;3.30;;;;;;;-147.53;100.00;57128.34;15277918;19;20085;-68
2022/01/30 15:27:55;;;;;;;24.80;3.40;;;;;;;-147.53;100.00;57128.34;15276521;19;20082;-68
2022/01/30 15:32:57;;;;;;;23.50;3.22;;;;;;;-147.53;100.00;57128.34;15276351;19;20437;-68
2022/01/30 15:37:59;;;;;;;16.75;3.03;;;;;;;-147.53;100.00;57128.34;15278914;19;20106;-68
2022/01/30 15:43:00;;;;;;;20.05;3.55;;;;;;;-147.53;100.00;57128.34;15276704;19;20089;-68
2022/01/30 15:53:22;;;;;;;16.60;2.85;;;;;;;-147.53;100.00;57128.34;15273506;19;20746;-69
2022/01/30 15:58:25;;;;;;;19.70;3.67;;;;;;;-147.53;100.00;57128.34;15275691;19;20094;-67
2022/01/30 16:03:26;;;;;;;22.02;3.65;;;;;;;-147.53;100.00;57128.34;15288525;19;20015;-67
2022/01/30 16:08:37;;;;;;;23.77;3.80;;;;;;;-147.53;100.00;57128.34;15276083;19;20667;-67
2022/01/30 16:19:09;;;;;;;15.53;3.10;;;;;;;-147.53;100.00;57128.34;15276904;19;20070;-68
2022/01/30 16:24:11;;;;;;;22.40;3.95;;;;;;;-147.53;100.00;57128.34;15273818;19;20031;-69
2022/01/30 16:29:13;;;;;;;17.52;3.05;;;;;;;-147.53;100.00;57128.34;15276086;19;20011;-68
2022/01/30 16:34:35;;;;;;;17.83;3.00;;;;;;;-147.53;100.00;57128.34;15272522;19;20482;-68
2022/01/30 16:39:37;;;;;;;18.00;3.80;;;;;;;-147.53;100.00;57128.34;15273251;19;20007;-67
2022/01/30 16:44:43;;;;;;;27.65;4.47;;;;;;;-147.53;100.00;57128.34;15272204;19;20411;-68
2022/01/30 16:49:45;;;;;;;31.85;8.07;;;;;;;-147.53;100.00;57128.34;15273576;19;20018;-69
2022/01/30 16:54:47;;;;;;;32.70;5.57;;;;;;;-147.53;100.00;57128.34;15270940;19;20090;-67
2022/01/30 16:59:49;;;;;;;22.20;4.72;;;;;;;-147.53;100.00;57128.34;15272124;19;20069;-68
2022/01/30 17:04:50;;;;;;;32.60;6.30;;;;;;;-147.53;100.00;57128.34;15278148;19;20085;-67
2022/01/30 17:09:52;;;;;;;30.38;4.28;;;;;;;-147.53;100.00;57128.34;15272658;19;20106;-67
2022/01/30 17:14:54;;;;;;;18.98;2.85;;;;;;;-147.53;100.00;57128.34;15270220;19;20010;-68
2022/01/30 17:19:55;;;;;;;17.08;2.92;;;;;;;-147.53;100.00;57128.34;15273533;19;20011;-69
2022/01/30 17:24:57;;;;;;;21.27;3.72;;;;;;;-147.53;100.00;57128.34;15269280;19;20797;-67
2022/01/30 17:30:00;;;;;;;25.13;3.33;;;;;;;-147.53;100.00;57128.34;15272064;19;20015;-67
2022/01/30 17:35:03;;;;;;;26.77;4.05;;;;;;;-147.53;100.00;57128.34;15267497;19;20530;-68
2022/01/30 17:40:05;;;;;;;19.92;3.30;;;;;;;-147.53;100.00;57128.34;15278874;19;20031;-68
2022/01/30 17:45:10;;;;;;;24.67;3.38;;;;;;;-147.53;100.00;57128.34;15283031;19;20014;-67
2022/01/30 17:50:13;;;;;;;23.27;2.58;;;;;;;-147.53;100.00;57128.34;15285130;19;20010;-67
2022/01/30 17:55:15;;;;;;;26.55;3.58;;;;;;;-147.53;100.00;57128.34;15282102;19;20435;-68
2022/01/30 18:00:17;;;;;;;29.40;4.85;;;;;;;-147.53;100.00;57128.34;15286041;19;20047;-67
2022/01/30 18:05:19;;;;;;;19.40;4.20;;;;;;;-147.53;100.00;57128.34;15289904;19;20015;-69
2022/01/30 18:10:21;;;;;;;17.70;3.13;;;;;;;-147.53;100.00;57128.34;15283659;19;20539;-69
2022/01/30 18:15:22;;;;;;;13.07;2.60;;;;;;;-147.53;100.00;57128.34;15282115;19;20022;-68
2022/01/30 18:20:26;;;;;;;29.58;3.53;;;;;;;-147.53;100.00;57128.34;15285770;19;20014;-68
2022/01/30 18:25:29;;;;;;;16.92;3.10;;;;;;;-147.53;100.00;57128.34;15281231;19;20031;-68
2022/01/30 18:30:30;;;;;;;22.42;3.03;;;;;;;-147.53;100.00;57128.34;15281966;19;20030;-67
2022/01/30 18:35:37;;;;;;;15.20;3.00;;;;;;;-147.53;100.00;57128.34;15279116;19;20027;-68
2022/01/30 18:40:46;;;;;;;26.27;3.45;;;;;;;-147.53;100.00;57128.34;15284078;19;20779;-67
2022/01/30 18:45:48;;;;;;;20.63;3.20;;;;;;;-147.53;100.00;57128.34;15277552;19;20037;-68
2022/01/30 18:50:50;;;;;;;25.85;4.15;;;;;;;-147.53;100.00;57128.34;15280393;19;20372;-68
2022/01/30 18:55:53;;;;;;;25.70;4.03;;;;;;;-147.53;100.00;57128.34;15276004;19;20366;-67
2022/01/30 19:00:55;;;;;;;21.23;3.10;;;;;;;-147.53;100.00;57128.34;15282602;19;20074;-66
2022/01/30 19:05:57;;;;;;;19.10;3.78;;;;;;;-147.53;100.00;57128.34;15282167;19;20110;-67
2022/01/30 19:10:59;;;;;;;19.30;3.00;;;;;;;-147.53;100.00;57128.34;15280102;19;20471;-67
2022/01/30 19:16:00;;;;;;;19.38;3.83;;;;;;;-147.53;100.00;57128.34;15277230;19;20090;-67
2022/01/30 19:21:02;;;;;;;24.25;4.82;;;;;;;-147.53;100.00;57128.34;15281622;19;20343;-68
2022/01/30 19:26:04;;;;;;;18.63;3.67;;;;;;;-147.53;100.00;57128.34;15277318;19;20022;-67
2022/01/30 19:31:08;;;;;;;28.73;3.03;;;;;;;-147.53;100.00;57128.34;15279063;19;20024;-67
2022/01/30 19:36:10;;;;;;;23.85;4.38;;;;;;;-147.53;100.00;57128.34;15277648;19;20026;-67
2022/01/30 19:41:12;;;;;;;28.55;4.60;;;;;;;-147.53;100.00;57128.34;15280119;19;20014;-68
2022/01/30 19:46:20;;;;;;;28.50;4.07;;;;;;;-147.53;100.00;57128.34;15275720;19;20010;-68
2022/01/30 19:51:22;;;;;;;21.30;3.35;;;;;;;-147.53;100.00;57128.34;15276327;19;20014;-68
2022/01/30 19:56:30;;;;;;;22.48;4.95;;;;;;;-147.53;100.00;57128.34;15274860;19;20037;-67
2022/01/30 20:01:32;;;;;;;19.10;3.40;;;;;;;-147.53;100.00;57128.34;15278624;19;20031;-67
2022/01/30 20:06:37;;;;;;;26.10;3.88;;;;;;;-147.53;100.00;57128.34;15273822;19;20014;-68
2022/01/30 20:11:39;;;;;;;27.52;3.47;;;;;;;-147.53;100.00;57128.34;15276998;19;20025;-67
2022/01/30 20:16:40;;;;;;;25.40;3.53;;;;;;;-147.53;100.00;57128.34;15273536;19;20018;-68
2022/01/30 20:21:42;;;;;;;23.23;3.70;;;;;;;-147.53;100.00;57128.34;15273224;19;20022;-68
2022/01/30 20:26:44;;;;;;;24.70;3.60;;;;;;;-147.53;100.00;57128.34;15274058;19;20010;-68
2022/01/30 20:31:46;;;;;;;29.73;3.55;;;;;;;-147.53;100.00;57128.34;15275280;19;20022;-67
2022/01/30 20:36:48;;;;;;;28.02;5.07;;;;;;;-147.53;100.00;57128.34;15273595;19;20030;-68
2022/01/30 20:41:50;;;;;;;19.50;3.83;;;;;;;-147.53;100.00;57128.34;15276538;19;20557;-68
2022/01/30 20:46:51;;;;;;;28.65;3.95;;;;;;;-147.53;100.00;57128.34;15272783;19;20014;-67
2022/01/30 20:51:55;;;;;;;19.73;3.05;;;;;;;-147.53;100.00;57128.34;15274538;19;20347;-68
2022/01/30 20:56:57;;;;;;;21.77;3.90;;;;;;;-147.53;100.00;57128.34;15271420;19;20018;-68
2022/01/30 21:01:59;;;;;;;21.75;3.72;;;;;;;-147.53;100.00;57128.34;15276429;19;20018;-68
2022/01/30 21:07:00;;;;;;;18.25;3.72;;;;;;;-147.53;100.00;57128.34;15269692;19;20019;-68
2022/01/30 21:12:03;;;;;;;18.95;3.78;;;;;;;-147.53;100.00;57128.34;15274747;19;20011;-66
2022/01/30 21:17:07;;;;;;;23.98;3.00;;;;;;;-147.53;100.00;57128.34;15283964;19;20015;-67
2022/01/30 21:22:09;;;;;;;26.58;3.28;;;;;;;-147.53;100.00;57128.34;15286090;19;20011;-68
2022/01/30 21:27:11;;;;;;;32.25;3.17;;;;;;;-147.53;100.00;57128.34;15284174;19;20073;-67
2022/01/30 21:32:12;;;;;;;19.60;3.08;;;;;;;-147.53;100.00;57128.34;15284993;19;20021;-67
2022/01/30 21:37:14;;;;;;;27.95;3.47;;;;;;;-147.53;100.00;57128.34;15282037;19;20023;-68
2022/01/30 21:42:16;;;;;;;17.40;2.55;;;;;;;-147.53;100.00;57128.34;15286517;19;20094;-67
2022/01/30 21:47:18;;;;;;;19.52;3.30;;;;;;;-147.53;100.00;57128.34;15282284;19;20381;-68
2022/01/30 21:52:23;;;;;;;23.15;3.55;;;;;;;-147.53;100.00;57128.34;15283685;19;20014;-68
2022/01/30 21:57:25;;;;;;;22.15;3.55;;;;;;;-147.53;100.00;57128.34;15284975;19;20018;-67
2022/01/30 22:02:27;;;;;;;25.95;3.47;;;;;;;-147.53;100.00;57128.34;15290868;19;20014;-67
2022/01/30 22:07:29;;;;;;;22.35;2.85;;;;;;;-147.53;100.00;57128.34;15283960;19;20045;-67
2022/01/30 22:12:46;;;;;;;21.70;3.45;;;;;;;-147.53;100.00;57128.34;15279351;19;20091;-67
2022/01/30 22:17:49;;;;;;;41.17;3.47;;;;;;;-147.53;100.00;57128.34;15281034;19;20019;-68
2022/01/30 22:22:51;;;;;;;24.65;4.03;;;;;;;-147.53;100.00;57128.34;15279928;19;20006;-68
2022/01/30 22:27:53;;;;;;;28.80;3.20;;;;;;;-147.53;100.00;57128.34;15281274;19;20499;-68
2022/01/30 22:32:55;;;;;;;23.23;3.85;;;;;;;-147.53;100.00;57128.34;15278481;19;20501;-68
2022/01/30 22:37:57;;;;;;;17.70;2.33;;;;;;;-147.53;100.00;57128.34;15280573;19;20601;-68
2022/01/30 22:42:59;;;;;;;28.83;3.88;;;;;;;-147.53;100.00;57128.34;15281096;19;20019;-68
2022/01/30 22:48:01;;;;;;;16.50;3.03;;;;;;;-147.53;100.00;57128.34;15280629;19;20486;-68
2022/01/30 22:53:02;;;;;;;30.55;4.38;;;;;;;-147.53;100.00;57128.34;15278564;19;20014;-68
2022/01/30 22:58:04;;;;;;;21.05;3.65;;;;;;;-147.53;100.00;57128.34;15278950;19;20727;-67
2022/01/30 23:03:06;;;;;;;26.15;3.42;;;;;;;-147.53;100.00;57128.34;15285540;19;20961;-68
2022/01/30 23:08:12;;;;;;;20.90;2.65;;;;;;;-147.53;100.00;57128.34;15279198;19;20089;-68
2022/01/30 23:13:13;;;;;;;28.63;3.88;;;;;;;-147.53;100.00;57128.34;15276847;19;20018;-68
2022/01/30 23:18:15;;;;;;;27.52;3.13;;;;;;;-147.53;100.00;57128.34;15276763;19;20415;-68
2022/01/30 23:23:17;;;;;;;24.27;3.05;;;;;;;-147.53;100.00;57128.34;15277713;19;20541;-68
2022/01/30 23:28:19;;;;;;;37.53;3.25;;;;;;;-147.53;100.00;57128.34;15279587;19;20006;-68
2022/01/30 23:33:21;;;;;;;25.92;3.60;;;;;;;-147.53;100.00;57128.34;15275592;19;20082;-67
2022/01/30 23:38:26;;;;;;;30.13;3.90;;;;;;;-147.53;100.00;57128.34;15278801;19;20590;-68
2022/01/30 23:43:31;;;;;;;28.27;3.03;;;;;;;-147.53;100.00;57128.34;15277383;19;20027;-68
2022/01/30 23:48:32;;;;;;;23.83;3.38;;;;;;;-147.53;100.00;57128.34;15279105;19;20038;-68
2022/01/30 23:53:34;;;;;;;37.67;5.07;;;;;;;-147.53;100.00;57128.34;15274149;19;20025;-67